Tuesday, January 23, 2018, 7:23 AM EST
Back to Local

KILG, Wilmington New Castle Co

Location: New Castle, DE, United States Lat: 39.667
Local Time: 7:23 AM EST (12:23 GMT) Lon: -75.6
Time Zone: US/Eastern Elev: 78 ft

Show me the last for .
Show Decoded

2018-01-23 06:51 METAR KILG 231151Z 16011KT 1 3/4SM R01/5500VP6000FT -RA BR OVC002 08/08 A2973
                 RMK AO2 RAB18 SLP068 P0003 60011 70011 T00780078 10083 20056 58025 =
2018-01-23 06:40 METAR KILG 231140Z 17011KT 1 1/4SM R01/6000VP6000FT -RA BR OVC002 08/08 A2975
                 RMK AO2 RAB18 P0000 T00780078 =
2018-01-23 06:15 METAR KILG 231115Z 18006KT 3/4SM R01/3500V5500FT BR VV002 06/06 A2976 RMK AO2
                 T00610061 =
2018-01-23 06:11 METAR KILG 231111Z AUTO 17007KT 1SM R01/3500VP6000FT BR OVC002 06/06 A2975 RMK
                 AO2 T00610061 =
2018-01-23 06:00 METAR KILG 231100Z AUTO 16010KT 2 1/2SM BR BKN002 BKN042 OVC070 06/06 A2976 RMK
                 AO2 T00610061 =
2018-01-23 05:51 METAR KILG 231051Z AUTO 16010KT 4SM BR SCT004 BKN043 OVC070 07/07 A2978 RMK AO2
                 RAE41 SLP082 P0001 T00670067 =
2018-01-23 05:47 METAR KILG 231047Z AUTO 16010KT 4SM BR FEW004 BKN055 OVC070 07/07 A2978 RMK AO2
                 RAE41 P0001 =
2018-01-23 05:27 METAR KILG 231027Z AUTO 16011KT 6SM -RA BR SCT016 BKN038 OVC090 08/07 A2979 RMK
                 AO2 P0001 T00780072 =
2018-01-23 05:04 METAR KILG 231004Z AUTO 18011KT 7SM -RA BKN017 OVC025 08/08 A2981 RMK AO2 P0001
                 T00780078 =
2018-01-23 04:51 METAR KILG 230951Z AUTO 17008KT 5SM VCTS -RA BR SCT015 BKN023 OVC047 08/07 A2981
                 RMK AO2 LTG DSNT NE RAB07 SLP093 P0007 T00780072 =
2018-01-23 04:49 METAR KILG 230949Z AUTO 17008KT 4SM VCTS -RA BR BKN015 BKN023 OVC055 08/07 A2981
                 RMK AO2 LTG DSNT NE RAB07 P0007 =
2018-01-23 04:20 METAR KILG 230920Z AUTO 17005KT 7SM -RA BKN015 OVC028 08/07 A2982 RMK AO2 RAB07
                 P0004 T00780067 =
2018-01-23 03:51 METAR KILG 230851Z AUTO 14005KT 10SM OVC013 08/06 A2984 RMK AO2 RAB23E34 SLP104
                 P0000 60000 T00780061 58038 =
2018-01-23 03:36 METAR KILG 230836Z AUTO 13004KT 10SM BKN014 OVC030 07/06 A2984 RMK AO2 RAB23E34
                 P0000 T00720056 =
2018-01-23 02:51 METAR KILG 230751Z AUTO 15004KT 10SM OVC033 07/05 A2989 RMK AO2 SLP123 T00670050
                 =
2018-01-23 01:51 METAR KILG 230651Z AUTO 17006KT 10SM FEW060 SCT085 06/03 A2993 RMK AO2 SLP134
                 T00560033 =
2018-01-23 00:51 METAR KILG 230551Z AUTO 16010KT 10SM CLR 07/04 A2995 RMK AO2 SLP141 T00670039
                 10089 20061 58021 =
2018-01-22 23:51 METAR KILG 230451Z AUTO 15005KT 10SM BKN100 06/03 A2997 RMK AO2 SLP149 T00610028
                 401560039 =
2018-01-22 22:51 METAR KILG 230351Z AUTO 17008KT 10SM OVC100 07/02 A3002 RMK AO2 SLP166 T00670022
                 =
2018-01-22 21:51 METAR KILG 230251Z 16007KT 10SM CLR 06/03 A3001 RMK AO2 SLP162 T00610033 58018 =
2018-01-22 20:51 METAR KILG 230151Z 16003KT 10SM CLR 08/04 A3004 RMK AO2 SLP170 T00780044 =
2018-01-22 19:51 METAR KILG 230051Z 15003KT 10SM CLR 09/04 A3006 RMK AO2 SLP178 T00890044 =
2018-01-22 18:51 METAR KILG 222351Z 15005KT 10SM CLR 08/04 A3007 RMK AO2 SLP181 T00830039 10156
                 20083 56003 =
2018-01-22 17:51 METAR KILG 222251Z 15005KT 10SM CLR 10/04 A3007 RMK AO2 SLP181 T01000044 =
2018-01-22 16:51 METAR KILG 222151Z 15005KT 10SM CLR 12/05 A3007 RMK AO2 SLP181 T01220050 =
2018-01-22 15:51 METAR KILG 222051Z 16005KT 10SM CLR 14/06 A3008 RMK AO2 SLP184 T01440056 56012 =
2018-01-22 14:51 METAR KILG 221951Z 15005KT 10SM CLR 15/06 A3008 RMK AO2 SLP185 T01500056 =
2018-01-22 13:51 METAR KILG 221851Z 17007KT 10SM FEW095 13/05 A3010 RMK AO2 SLP191 T01330050 =
2018-01-22 12:51 METAR KILG 221751Z 16007KT 10SM BKN085 13/04 A3011 RMK AO2 SLP195 T01280044
                 10128 20050 58025 =
2018-01-22 11:51 METAR KILG 221651Z 10004KT 10SM SCT080 BKN120 12/04 A3014 RMK AO2 SLP204
                 T01170044 =
2018-01-22 10:51 METAR KILG 221551Z 11003KT 10SM OVC120 10/04 A3017 RMK AO2 SLP217 T01000044 =
2018-01-22 09:51 METAR KILG 221451Z 00000KT 10SM OVC110 08/04 A3018 RMK AO2 SLP220 T00830039
                 53009 =
2018-01-22 08:51 METAR KILG 221351Z 00000KT 10SM OVC100 07/03 A3016 RMK AO2 SLP214 T00720033 =
2018-01-22 07:51 METAR KILG 221251Z 00000KT 10SM OVC100 06/03 A3016 RMK AO2 SLP211 T00560028 $ =

Support USWX by starting your Amazon purchase here.